Time;durP1;ratioP1;P1;durP2;ratioP2;P2;SDS_P1;SDS_P2;PMS_P1;PMS_P2;Temp;Humidity;BMP_temperature;BMP_pressure;BME280_temperature;BME280_humidity;BME280_pressure;Samples;Min_cycle;Max_cycle;Signal;HPM_P1;HPM_P2
2022/01/07 00:02:11;;;;;;;;;;;;;;;9.78;81.16;101418.00;5037962;28;19971;-52
2022/01/07 00:04:37;;;;;;;;;;;;;;;9.82;81.10;101409.94;5054792;28;19920;-53
2022/01/07 00:07:05;;;;;;;;;;;;;;;9.84;81.08;101413.31;5053840;28;20019;-51
2022/01/07 00:09:31;;;;;;;;;;;;;;;9.87;81.08;101412.81;5055041;28;19925;-53
2022/01/07 00:11:59;;;;;;;;;;;;;;;9.90;81.15;101406.72;5044675;28;19921;-48
2022/01/07 00:14:26;;;;;;;;;;;;;;;9.94;81.13;101419.06;5035396;28;20024;-54
2022/01/07 00:16:53;;;;;;;;;;;;;;;9.97;80.87;101415.75;5034753;28;20013;-52
2022/01/07 00:19:20;;;;;;;;;;;;;;;9.99;81.09;101418.31;5034664;28;20024;-54
2022/01/07 00:21:46;;;;;;;;;;;;;;;10.00;81.01;101422.78;5034552;28;20008;-53
2022/01/07 00:24:13;;;;;;;;;;;;;;;10.00;81.20;101423.63;5034392;28;20005;-53
2022/01/07 00:26:40;;;;;;;;;;;;;;;10.01;80.97;101419.72;5034283;28;19921;-52
2022/01/07 00:29:06;;;;;;;;;;;;;;;10.02;80.92;101418.66;5043861;28;20008;-52
2022/01/07 00:31:34;;;;;;;;;;;;;;;10.03;81.08;101414.75;5053642;28;20015;-53
2022/01/07 00:34:01;;;;;;;;;;;;;;;10.07;81.25;101424.28;5046537;28;19921;-54
2022/01/07 00:36:27;;;;;;;;;;;;;;;10.09;81.10;101424.88;5034581;28;19975;-54
2022/01/07 00:38:54;;;;;;;;;;;;;;;10.12;81.04;101423.50;5034377;28;20529;-53
2022/01/07 00:41:21;;;;;;;;;;;;;;;10.13;80.93;101420.47;5034265;28;20011;-52
2022/01/07 00:43:50;;;;;;;;;;;;;;;10.16;81.07;101411.59;5034141;28;20008;-53
2022/01/07 00:46:19;;;;;;;;;;;;;;;10.20;81.04;101420.28;5033972;28;19921;-53
2022/01/07 00:48:45;;;;;;;;;;;;;;;10.22;81.05;101426.44;5040061;28;19921;-53
2022/01/07 00:51:13;;;;;;;;;;;;;;;10.23;80.88;101427.31;5034088;28;20381;-52
2022/01/07 00:53:41;;;;;;;;;;;;;;;10.23;80.97;101430.13;5034055;28;20008;-52
2022/01/07 00:56:08;;;;;;;;;;;;;;;10.23;81.08;101427.31;5034150;28;20031;-51
2022/01/07 00:58:34;;;;;;;;;;;;;;;10.23;81.08;101430.13;5073232;28;20011;-54
2022/01/07 01:01:01;;;;;;;;;;;;;;;10.19;80.95;101433.41;5074174;28;20020;-54
2022/01/07 01:03:28;;;;;;;;;;;;;;;10.14;80.99;101436.09;5034465;28;19951;-52
2022/01/07 01:05:58;;;;;;;;;;;;;;;10.12;81.19;101434.66;5034548;28;19921;-54
2022/01/07 01:08:26;;;;;;;;;;;;;;;10.09;81.22;101435.22;5046671;28;19920;-53
2022/01/07 01:10:56;;;;;;;;;;;;;;;10.06;80.93;101442.13;5052621;28;20015;-56
2022/01/07 01:13:31;;;;;;;;;;;;;;;10.03;81.03;101445.44;5053528;28;19925;-53
2022/01/07 01:15:58;;;;;;;;;;;;;;;10.01;80.97;101444.84;5047076;28;19967;-53
2022/01/07 01:18:25;;;;;;;;;;;;;;;9.99;80.90;101443.44;5033435;28;20024;-52
2022/01/07 01:20:52;;;;;;;;;;;;;;;9.95;80.97;101443.09;5034086;28;20317;-50
2022/01/07 01:23:19;;;;;;;;;;;;;;;9.93;81.12;101445.28;5035097;28;19921;-48
2022/01/07 01:25:45;;;;;;;;;;;;;;;9.93;80.94;101445.28;5033846;28;20011;-52
2022/01/07 01:28:12;;;;;;;;;;;;;;;9.92;80.92;101450.00;5033512;28;19968;-52
2022/01/07 01:30:39;;;;;;;;;;;;;;;9.92;81.18;101444.44;5033291;28;20015;-54
2022/01/07 01:33:05;;;;;;;;;;;;;;;9.93;81.19;101453.66;5033611;28;20316;-52
2022/01/07 01:35:32;;;;;;;;;;;;;;;9.95;81.17;101449.50;5033500;28;20311;-51
2022/01/07 01:37:59;;;;;;;;;;;;;;;9.96;81.33;101451.19;5035513;28;20455;-54
2022/01/07 01:40:26;;;;;;;;;;;;;;;10.01;81.26;101452.38;5052277;28;20027;-53
2022/01/07 01:42:53;;;;;;;;;;;;;;;10.02;81.22;101460.50;5053381;28;20011;-54
2022/01/07 01:45:21;;;;;;;;;;;;;;;10.04;81.13;101463.03;5053182;28;19952;-53
2022/01/07 01:47:48;;;;;;;;;;;;;;;10.03;81.03;101462.19;5049300;28;20007;-54
2022/01/07 01:50:15;;;;;;;;;;;;;;;10.03;81.22;101462.19;5032632;28;20020;-53
2022/01/07 01:52:46;;;;;;;;;;;;;;;10.04;81.28;101472.22;5033137;28;20341;-53
2022/01/07 01:55:14;;;;;;;;;;;;;;;10.05;81.13;101471.16;5032947;28;20016;-51
2022/01/07 01:57:41;;;;;;;;;;;;;;;10.06;81.17;101478.41;5033049;28;20031;-53
2022/01/07 02:00:09;;;;;;;;;;;;;;;10.09;81.29;101482.66;5032829;28;20481;-53
2022/01/07 02:02:36;;;;;;;;;;;;;;;10.10;81.23;101479.59;5032899;28;19975;-54
2022/01/07 02:05:03;;;;;;;;;;;;;;;10.13;81.28;101479.09;5032770;28;19928;-53
2022/01/07 02:07:31;;;;;;;;;;;;;;;10.15;81.18;101485.28;5032420;28;20023;-53
2022/01/07 02:09:58;;;;;;;;;;;;;;;10.19;81.13;101480.88;5064936;28;20348;-51
2022/01/07 02:12:25;;;;;;;;;;;;;;;10.23;81.23;101491.53;5034217;28;20019;-52
2022/01/07 02:14:52;;;;;;;;;;;;;;;10.24;81.24;101496.00;5049497;28;19921;-52
2022/01/07 02:17:20;;;;;;;;;;;;;;;10.24;81.22;101493.22;5052676;28;20015;-50
2022/01/07 02:19:47;;;;;;;;;;;;;;;10.24;81.02;101484.84;5047368;28;20383;-53
2022/01/07 02:22:19;;;;;;;;;;;;;;;10.24;81.21;101490.41;5032718;28;20350;-52
2022/01/07 02:24:46;;;;;;;;;;;;;;;10.24;81.11;101496.00;5032575;28;20016;-54
2022/01/07 02:27:14;;;;;;;;;;;;;;;10.21;81.06;101494.56;5032717;28;19921;-51
2022/01/07 02:29:42;;;;;;;;;;;;;;;10.23;81.18;101497.94;5040155;28;19925;-54
2022/01/07 02:32:09;;;;;;;;;;;;;;;10.25;81.10;101500.47;5031526;28;20019;-53
2022/01/07 02:34:35;;;;;;;;;;;;;;;10.26;81.22;101502.22;5032330;28;20011;-51
2022/01/07 02:37:04;;;;;;;;;;;;;;;10.26;81.07;101503.06;5032548;28;19967;-52
2022/01/07 02:39:31;;;;;;;;;;;;;;;10.25;80.98;101512.47;5032496;28;19921;-53
2022/01/07 02:41:57;;;;;;;;;;;;;;;10.26;81.06;101510.59;5032571;28;20004;-54
2022/01/07 02:44:28;;;;;;;;;;;;;;;10.22;81.12;101510.19;5032768;28;20007;-54
2022/01/07 02:46:54;;;;;;;;;;;;;;;10.18;81.05;101514.59;5032796;28;19964;-55
2022/01/07 02:49:21;;;;;;;;;;;;;;;10.15;81.26;101515.97;5032419;28;20408;-54
2022/01/07 02:51:48;;;;;;;;;;;;;;;10.15;81.22;101517.91;5032281;28;20031;-54
2022/01/07 02:54:15;;;;;;;;;;;;;;;10.17;81.23;101519.34;5032572;28;19975;-54
2022/01/07 02:56:41;;;;;;;;;;;;;;;10.18;81.22;101521.03;5032572;28;20355;-54
2022/01/07 02:59:09;;;;;;;;;;;;;;;10.17;81.15;101519.34;5044699;28;20055;-53
2022/01/07 03:01:36;;;;;;;;;;;;;;;10.12;81.03;101527.66;5032372;28;20016;-52
2022/01/07 03:04:04;;;;;;;;;;;;;;;10.06;81.08;101523.06;5042146;28;19921;-52
2022/01/07 03:06:31;;;;;;;;;;;;;;;10.02;81.14;101521.91;5046006;28;19964;-52
2022/01/07 03:08:57;;;;;;;;;;;;;;;10.01;81.29;101519.34;5036093;28;19956;-51
2022/01/07 03:11:25;;;;;;;;;;;;;;;9.97;81.30;101519.84;5036026;28;19976;-52
2022/01/07 03:13:51;;;;;;;;;;;;;;;9.97;81.30;101517.06;5035917;28;19959;-52
2022/01/07 03:16:18;;;;;;;;;;;;;;;9.97;81.25;101514.25;5036144;28;20329;-51
2022/01/07 03:18:45;;;;;;;;;;;;;;;9.96;81.35;101517.31;5048325;28;20380;-53
2022/01/07 03:21:14;;;;;;;;;;;;;;;9.94;81.30;101509.19;5046933;28;20016;-51
2022/01/07 03:23:41;;;;;;;;;;;;;;;9.95;81.16;101510.06;5036113;28;19921;-52
2022/01/07 03:26:08;;;;;;;;;;;;;;;9.95;81.23;101510.06;5035765;28;20023;-51
2022/01/07 03:28:38;;;;;;;;;;;;;;;9.95;81.09;101499.75;5038948;28;19932;-52
2022/01/07 03:31:06;;;;;;;;;;;;;;;9.95;81.17;101501.69;5035919;28;19960;-53
2022/01/07 03:33:33;;;;;;;;;;;;;;;9.92;81.25;101505.81;5035576;28;19924;-53
2022/01/07 03:35:59;;;;;;;;;;;;;;;9.92;81.20;101504.97;5044955;28;20487;-49
2022/01/07 03:38:26;;;;;;;;;;;;;;;9.89;81.02;101505.47;5054777;28;19964;-53
2022/01/07 03:40:53;;;;;;;;;;;;;;;9.85;80.90;101505.16;5045809;28;20007;-53
2022/01/07 03:43:19;;;;;;;;;;;;;;;9.82;81.03;101499.22;5035567;28;20023;-52
2022/01/07 03:45:46;;;;;;;;;;;;;;;9.78;81.01;101500.81;5035121;28;19925;-52
2022/01/07 03:48:13;;;;;;;;;;;;;;;9.77;81.15;101513.91;5035623;28;19928;-52
2022/01/07 03:50:40;;;;;;;;;;;;;;;9.76;81.34;101511.38;5035611;28;19963;-49
2022/01/07 03:53:06;;;;;;;;;;;;;;;9.75;81.26;101509.69;5035121;28;19972;-53
2022/01/07 03:55:33;;;;;;;;;;;;;;;9.74;81.31;101506.03;5036081;28;19987;-52
2022/01/07 03:58:00;;;;;;;;;;;;;;;9.74;81.32;101508.81;5035599;28;19960;-52
2022/01/07 04:00:32;;;;;;;;;;;;;;;9.76;81.40;101505.81;5035156;28;19987;-49
2022/01/07 04:03:17;;;;;;;;;;;;;;;9.75;81.20;101509.69;5035323;28;19991;-52
2022/01/07 04:05:45;;;;;;;;;;;;;;;9.76;81.19;101508.59;5035097;28;20029;-53
2022/01/07 04:08:12;;;;;;;;;;;;;;;9.77;81.20;101508.31;5035244;28;19927;-52
2022/01/07 04:10:39;;;;;;;;;;;;;;;9.76;81.21;101505.81;5035169;28;19979;-52
2022/01/07 04:13:07;;;;;;;;;;;;;;;9.76;81.35;101503.84;5035190;28;20019;-49
2022/01/07 04:15:33;;;;;;;;;;;;;;;9.77;81.23;101511.13;5034648;28;19921;-48
2022/01/07 04:18:00;;;;;;;;;;;;;;;9.77;81.22;101515.84;5035016;28;20051;-52
2022/01/07 04:20:28;;;;;;;;;;;;;;;9.76;81.21;101519.75;5035063;28;19960;-52
2022/01/07 04:22:55;;;;;;;;;;;;;;;9.75;81.20;101523.66;5038827;28;20003;-52
2022/01/07 04:25:23;;;;;;;;;;;;;;;9.75;81.30;101520.84;5054309;28;20348;-52
2022/01/07 04:27:51;;;;;;;;;;;;;;;9.75;81.48;101527.28;5048801;28;20383;-49
2022/01/07 04:30:19;;;;;;;;;;;;;;;9.76;81.43;101530.91;5035008;28;20016;-51
2022/01/07 04:32:46;;;;;;;;;;;;;;;9.75;81.23;101537.59;5034810;28;20011;-52
2022/01/07 04:35:12;;;;;;;;;;;;;;;9.72;81.29;101537.00;5034321;28;20023;-52
2022/01/07 04:37:39;;;;;;;;;;;;;;;9.73;81.51;101535.03;5034765;28;20004;-52
2022/01/07 04:40:08;;;;;;;;;;;;;;;9.73;81.48;101543.41;5034624;28;19964;-50
2022/01/07 04:42:35;;;;;;;;;;;;;;;9.73;81.35;101535.03;5034270;28;20019;-52
2022/01/07 04:45:02;;;;;;;;;;;;;;;9.75;81.41;101545.97;5034265;28;19959;-52
2022/01/07 04:47:28;;;;;;;;;;;;;;;9.76;81.36;101545.69;5034621;28;20036;-51
2022/01/07 04:49:55;;;;;;;;;;;;;;;9.78;81.37;101542.66;5034282;28;19921;-51
2022/01/07 04:52:22;;;;;;;;;;;;;;;9.76;81.18;101544.84;5034090;28;20015;-52
2022/01/07 04:54:49;;;;;;;;;;;;;;;9.77;81.34;101546.53;5034219;28;19921;-52
2022/01/07 04:57:16;;;;;;;;;;;;;;;9.79;81.35;101555.50;5034310;28;20008;-52
2022/01/07 04:59:43;;;;;;;;;;;;;;;9.82;81.20;101560.59;5037252;28;20003;-52
2022/01/07 05:02:10;;;;;;;;;;;;;;;9.82;81.39;101550.28;5034250;28;20016;-52
2022/01/07 05:04:37;;;;;;;;;;;;;;;9.84;81.24;101556.44;5034428;28;19921;-53
2022/01/07 05:07:03;;;;;;;;;;;;;;;9.85;81.09;101555.34;5033791;28;19971;-51
2022/01/07 05:09:30;;;;;;;;;;;;;;;9.85;81.18;101560.09;5034230;28;20004;-50
2022/01/07 05:11:57;;;;;;;;;;;;;;;9.83;81.34;101556.69;5034525;28;19960;-51
2022/01/07 05:14:23;;;;;;;;;;;;;;;9.84;81.12;101575.13;5034352;28;19921;-53
2022/01/07 05:16:50;;;;;;;;;;;;;;;9.83;81.21;101567.84;5033620;28;20460;-50
2022/01/07 05:19:18;;;;;;;;;;;;;;;9.84;81.32;101563.97;5034247;28;19967;-52
2022/01/07 05:21:44;;;;;;;;;;;;;;;9.83;81.27;101556.69;5033667;28;20343;-53
2022/01/07 05:24:11;;;;;;;;;;;;;;;9.82;81.18;101563.38;5033627;28;19921;-49
2022/01/07 05:26:37;;;;;;;;;;;;;;;9.80;81.00;101573.94;5032827;28;19921;-54
2022/01/07 05:29:04;;;;;;;;;;;;;;;9.79;81.09;101578.69;5041199;28;19960;-51
2022/01/07 05:31:31;;;;;;;;;;;;;;;9.80;81.21;101576.72;5040618;28;19920;-49
2022/01/07 05:33:58;;;;;;;;;;;;;;;9.77;81.01;101574.44;5033715;28;19979;-52
2022/01/07 05:36:25;;;;;;;;;;;;;;;9.75;80.97;101571.06;5034082;28;19921;-52
2022/01/07 05:38:52;;;;;;;;;;;;;;;9.70;80.99;101567.06;5033618;28;20340;-53
2022/01/07 05:41:19;;;;;;;;;;;;;;;9.64;81.11;101570.00;5033568;28;20016;-49
2022/01/07 05:43:46;;;;;;;;;;;;;;;9.58;81.05;101571.88;5031941;28;19964;-52
2022/01/07 05:46:14;;;;;;;;;;;;;;;9.51;80.70;101581.47;5033235;28;19964;-53
2022/01/07 05:48:42;;;;;;;;;;;;;;;9.44;80.84;101570.47;5033373;28;19927;-52
2022/01/07 05:51:09;;;;;;;;;;;;;;;9.37;80.75;101575.34;5033126;28;20019;-54
2022/01/07 05:53:36;;;;;;;;;;;;;;;9.31;80.83;101570.75;5033555;28;20011;-49
2022/01/07 05:56:03;;;;;;;;;;;;;;;9.22;80.93;101571.13;5033376;28;20015;-51
2022/01/07 05:58:30;;;;;;;;;;;;;;;9.20;81.10;101570.56;5033004;28;20015;-50
2022/01/07 06:00:56;;;;;;;;;;;;;;;9.15;80.95;101570.44;5050212;28;20015;-51
2022/01/07 06:03:23;;;;;;;;;;;;;;;9.10;81.10;101584.25;5053173;28;20272;-52
2022/01/07 06:05:50;;;;;;;;;;;;;;;9.06;80.87;101576.63;5051343;28;20058;-50
2022/01/07 06:08:17;;;;;;;;;;;;;;;9.01;81.07;101582.94;5052780;28;20381;-53
2022/01/07 06:10:45;;;;;;;;;;;;;;;8.97;80.99;101598.47;5033969;28;19921;-51
2022/01/07 06:13:11;;;;;;;;;;;;;;;8.92;81.18;101601.13;5032771;28;20023;-52
2022/01/07 06:15:38;;;;;;;;;;;;;;;8.85;81.04;101594.81;5033007;28;19964;-51
2022/01/07 06:18:05;;;;;;;;;;;;;;;8.82;81.20;101595.31;5033057;28;19921;-52
2022/01/07 06:20:32;;;;;;;;;;;;;;;8.80;81.15;101608.66;5032752;28;19956;-53
2022/01/07 06:22:58;;;;;;;;;;;;;;;8.75;81.17;101601.88;5032988;28;20016;-51
2022/01/07 06:25:25;;;;;;;;;;;;;;;8.72;81.02;101605.16;5034563;28;19952;-52
2022/01/07 06:27:52;;;;;;;;;;;;;;;8.70;81.16;101612.03;5033272;28;20024;-54
2022/01/07 06:30:19;;;;;;;;;;;;;;;8.67;81.10;101618.94;5032282;28;19925;-52
2022/01/07 06:32:45;;;;;;;;;;;;;;;8.64;81.20;101622.19;5032547;28;20012;-53
2022/01/07 06:35:12;;;;;;;;;;;;;;;8.61;81.43;101622.69;5051745;28;20011;-53
2022/01/07 06:37:39;;;;;;;;;;;;;;;8.61;81.41;101622.69;5055610;28;20015;-50
2022/01/07 06:40:06;;;;;;;;;;;;;;;8.60;81.34;101632.13;5056458;28;20019;-52
2022/01/07 06:42:33;;;;;;;;;;;;;;;8.58;81.42;101623.19;5036421;28;19967;-53
2022/01/07 06:45:00;;;;;;;;;;;;;;;8.59;81.33;101632.38;5042746;28;19960;-53
2022/01/07 06:47:27;;;;;;;;;;;;;;;8.59;81.17;101635.16;5056123;28;19974;-52
2022/01/07 06:49:54;;;;;;;;;;;;;;;8.57;81.29;101643.75;5046073;28;19964;-53
2022/01/07 06:52:21;;;;;;;;;;;;;;;8.57;81.04;101642.91;5036367;28;19964;-53
2022/01/07 06:54:48;;;;;;;;;;;;;;;8.54;81.37;101655.34;5036364;28;20405;-53
2022/01/07 06:57:15;;;;;;;;;;;;;;;8.51;81.39;101661.41;5036385;28;20015;-53
2022/01/07 06:59:42;;;;;;;;;;;;;;;8.47;81.54;101665.75;5036144;28;20015;-53
2022/01/07 07:02:10;;;;;;;;;;;;;;;8.45;81.34;101668.78;5037178;28;19960;-53
2022/01/07 07:04:37;;;;;;;;;;;;;;;8.45;81.56;101676.31;5036613;28;19948;-52
2022/01/07 07:07:04;;;;;;;;;;;;;;;8.45;81.56;101673.53;5036435;28;20007;-53
2022/01/07 07:09:31;;;;;;;;;;;;;;;8.44;81.54;101681.00;5036203;28;20012;-53
2022/01/07 07:11:57;;;;;;;;;;;;;;;8.43;81.45;101681.25;5036158;28;19925;-53
2022/01/07 07:14:24;;;;;;;;;;;;;;;8.41;81.65;101688.97;5047114;28;20007;-52
2022/01/07 07:16:50;;;;;;;;;;;;;;;8.41;81.49;101680.63;5055833;28;19924;-52
2022/01/07 07:19:17;;;;;;;;;;;;;;;8.40;81.66;101687.28;5055304;28;19921;-53
2022/01/07 07:21:44;;;;;;;;;;;;;;;8.39;81.55;101685.59;5056058;28;19996;-53
2022/01/07 07:24:10;;;;;;;;;;;;;;;8.39;81.58;101688.38;5040816;28;20019;-53
2022/01/07 07:26:38;;;;;;;;;;;;;;;8.38;81.60;101690.31;5036161;28;20003;-53
2022/01/07 07:29:05;;;;;;;;;;;;;;;8.36;81.71;101680.47;5035662;28;20372;-53
2022/01/07 07:31:32;;;;;;;;;;;;;;;8.37;81.74;101684.94;5045860;28;20012;-52
2022/01/07 07:36:45;;;;;;;;;;;;;;;8.34;81.66;101682.63;5043150;28;20012;-52
2022/01/07 07:39:12;;;;;;;;;;;;;;;8.34;81.46;101688.19;5043509;28;20012;-53
2022/01/07 07:41:41;;;;;;;;;;;;;;;8.32;81.45;101685.66;5055198;28;19968;-54
2022/01/07 07:44:08;;;;;;;;;;;;;;;8.31;81.45;101684.84;5040625;28;19995;-52
2022/01/07 07:46:36;;;;;;;;;;;;;;;8.31;81.39;101681.19;5034197;28;20108;-53
2022/01/07 07:49:04;;;;;;;;;;;;;;;8.29;81.52;101673.06;5033229;28;19928;-53
2022/01/07 07:51:31;;;;;;;;;;;;;;;8.28;81.56;101679.75;5034175;28;20007;-53
2022/01/07 07:53:58;;;;;;;;;;;;;;;8.27;81.46;101678.06;5034557;28;19975;-52
2022/01/07 07:56:26;;;;;;;;;;;;;;;8.28;81.48;101681.69;5034309;28;19921;-52
2022/01/07 07:58:57;;;;;;;;;;;;;;;8.28;81.54;101681.69;5034623;28;19966;-51
2022/01/07 08:01:24;;;;;;;;;;;;;;;8.29;81.55;101687.00;5037859;28;19951;-53
2022/01/07 08:03:51;;;;;;;;;;;;;;;8.28;81.42;101685.31;5054348;28;19950;-54
2022/01/07 08:06:18;;;;;;;;;;;;;;;8.26;81.43;101693.03;5054429;28;19999;-51
2022/01/07 08:08:46;;;;;;;;;;;;;;;8.24;81.37;101692.44;5046482;28;20119;-53
2022/01/07 08:11:13;;;;;;;;;;;;;;;8.20;81.55;101693.97;5034976;28;19974;-52
2022/01/07 08:16:27;;;;;;;;;;;;;;;8.04;81.85;101677.97;5034409;28;19998;-49
2022/01/07 08:18:55;;;;;;;;;;;;;;;8.21;81.90;101697.63;5034280;28;20004;-49
2022/01/07 08:21:24;;;;;;;;;;;;;;;8.36;82.25;101688.81;5053362;28;20419;-52
2022/01/07 08:23:51;;;;;;;;;;;;;;;8.57;82.24;101699.44;5054005;28;20055;-50
2022/01/07 08:26:19;;;;;;;;;;;;;;;8.76;82.45;101708.56;5052770;28;20321;-52
2022/01/07 08:28:53;;;;;;;;;;;;;;;8.93;82.20;101695.59;5034188;28;20361;-50
2022/01/07 08:36:33;;;;;;;;;;;;;;;9.51;82.17;101718.13;5034115;28;20024;-52
2022/01/07 08:39:00;;;;;;;;;;;;;;;9.76;82.35;101717.81;5034693;28;20367;-50
2022/01/07 08:41:28;;;;;;;;;;;;;;;9.99;82.55;101723.31;5034304;28;20015;-52
2022/01/07 08:43:55;;;;;;;;;;;;;;;10.30;82.57;101735.13;5038917;28;20408;-54
2022/01/07 08:46:22;;;;;;;;;;;;;;;10.49;82.31;101739.38;5054423;28;20024;-53
2022/01/07 08:48:49;;;;;;;;;;;;;;;10.72;82.42;101745.94;5048267;28;19975;-53
2022/01/07 08:51:16;;;;;;;;;;;;;;;10.95;82.22;101742.97;5034534;28;20019;-53
2022/01/07 08:53:43;;;;;;;;;;;;;;;11.19;82.16;101748.41;5034290;28;19927;-54
2022/01/07 08:56:09;;;;;;;;;;;;;;;11.39;81.96;101763.53;5034118;28;20433;-53
2022/01/07 08:58:36;;;;;;;;;;;;;;;11.63;81.93;101766.97;5033815;28;20028;-51
2022/01/07 09:01:03;;;;;;;;;;;;;;;11.96;81.60;101781.97;5034711;28;20059;-53
2022/01/07 09:03:30;;;;;;;;;;;;;;;12.32;81.49;101790.84;5033983;28;19956;-51
2022/01/07 09:05:59;;;;;;;;;;;;;;;12.66;81.08;101794.28;5032851;28;20293;-52
2022/01/07 09:08:26;;;;;;;;;;;;;;;13.19;81.07;101800.09;5033793;28;20013;-52
2022/01/07 09:10:52;;;;;;;;;;;;;;;13.85;80.29;101806.22;5033788;28;20016;-53
2022/01/07 09:13:22;;;;;;;;;;;;;;;14.47;79.37;101812.97;5043514;28;20015;-52
2022/01/07 09:15:49;;;;;;;;;;;;;;;15.14;78.66;101816.75;5054072;28;19966;-52
2022/01/07 09:18:15;;;;;;;;;;;;;;;15.79;78.02;101820.69;5052758;28;20019;-52
2022/01/07 09:20:44;;;;;;;;;;;;;;;16.41;77.35;101829.81;5053845;28;20336;-52
2022/01/07 09:23:11;;;;;;;;;;;;;;;17.02;76.46;101832.28;5039579;28;20027;-53
2022/01/07 09:25:38;;;;;;;;;;;;;;;17.75;75.72;101851.16;5033358;28;20040;-52
2022/01/07 09:28:06;;;;;;;;;;;;;;;18.50;74.80;101843.28;5033441;28;19979;-51
2022/01/07 09:30:33;;;;;;;;;;;;;;;19.13;73.62;101851.47;5033211;28;20004;-53
2022/01/07 09:33:00;;;;;;;;;;;;;;;19.70;72.61;101845.72;5033297;28;19928;-52
2022/01/07 09:35:27;;;;;;;;;;;;;;;20.29;71.46;101844.84;5034114;28;20328;-53
2022/01/07 09:37:53;;;;;;;;;;;;;;;20.83;70.53;101856.50;5033196;28;19968;-53
2022/01/07 09:40:21;;;;;;;;;;;;;;;21.36;69.06;101855.00;5044976;28;20023;-50
2022/01/07 09:42:58;;;;;;;;;;;;;;;21.76;67.84;101867.31;5033020;28;19928;-52
2022/01/07 09:45:26;;;;;;;;;;;;;;;22.16;66.09;101870.25;5033168;28;20369;-52
2022/01/07 09:47:54;;;;;;;;;;;;;;;22.50;65.61;101871.56;5033280;28;19921;-50
2022/01/07 09:50:22;;;;;;;;;;;;;;;22.83;64.08;101867.13;5048363;28;20036;-51
2022/01/07 09:52:48;;;;;;;;;;;;;;;23.32;63.68;101876.44;5050998;28;20011;-54
2022/01/07 09:55:15;;;;;;;;;;;;;;;23.79;62.44;101875.72;5053292;28;19921;-52
2022/01/07 09:57:42;;;;;;;;;;;;;;;24.23;61.76;101877.28;5035350;28;20387;-49
2022/01/07 10:00:10;;;;;;;;;;;;;;;24.67;60.88;101882.81;5033253;28;20333;-52
2022/01/07 10:02:37;;;;;;;;;;;;;;;25.05;60.18;101897.88;5032860;28;20012;-53
2022/01/07 10:05:14;;;;;;;;;;;;;;;25.08;59.58;101896.34;5047018;28;19927;-53
2022/01/07 10:07:42;;;;;;;;;;;;;;;25.02;58.37;101897.72;5032965;28;20273;-50
2022/01/07 10:10:18;;;;;;;;;;;;;;;25.09;57.63;101898.00;5033612;28;19975;-52
2022/01/07 10:13:04;;;;;;;;;;;;;;;25.12;57.10;101913.66;5032152;28;20024;-51
2022/01/07 10:15:31;;;;;;;;;;;;;;;25.03;56.94;101905.13;5032696;28;20024;-53
2022/01/07 10:18:17;;;;;;;;;;;;;;;25.06;56.70;101913.03;5031937;28;19921;-53
2022/01/07 10:20:44;;;;;;;;;;;;;;;25.24;56.57;101908.88;5032902;28;20284;-53
2022/01/07 10:23:13;;;;;;;;;;;;;;;25.38;55.97;101907.75;5032673;28;19967;-52
2022/01/07 10:25:44;;;;;;;;;;;;;;;25.57;55.57;101908.06;5031909;28;19956;-52
2022/01/07 10:28:18;;;;;;;;;;;;;;;25.75;54.77;101912.47;5032394;28;20016;-52
2022/01/07 10:30:52;;;;;;;;;;;;;;;25.97;54.83;101910.44;5032815;28;19952;-53
2022/01/07 10:33:35;;;;;;;;;;;;;;;26.29;54.00;101916.47;5041247;28;20280;-54
2022/01/07 10:36:08;;;;;;;;;;;;;;;26.45;52.51;101915.41;5052337;28;20007;-53
2022/01/07 10:38:36;;;;;;;;;;;;;;;26.44;51.48;101910.06;5052557;28;20353;-53
2022/01/07 10:41:03;;;;;;;;;;;;;;;26.43;50.28;101899.78;5052159;28;20020;-51
2022/01/07 10:43:34;;;;;;;;;;;;;;;26.23;49.00;101896.66;5033482;28;19979;-53
2022/01/07 10:46:12;;;;;;;;;;;;;;;26.26;48.22;101902.84;5032363;28;19921;-53
2022/01/07 10:48:38;;;;;;;;;;;;;;;26.60;48.40;101899.59;5032593;28;20327;-52
2022/01/07 10:51:06;;;;;;;;;;;;;;;26.98;47.96;101904.13;5032429;28;20012;-53
2022/01/07 10:53:33;;;;;;;;;;;;;;;27.40;47.61;101898.06;5032164;28;19975;-52
2022/01/07 10:56:19;;;;;;;;;;;;;;;27.79;45.72;101904.16;5050748;28;20031;-51
2022/01/07 10:58:46;;;;;;;;;;;;;;;27.68;44.96;101900.13;5052178;28;20353;-52
2022/01/07 11:01:18;;;;;;;;;;;;;;;27.82;44.49;101912.03;5034750;28;19968;-52
2022/01/07 11:03:49;;;;;;;;;;;;;;;27.98;43.82;101907.19;5032063;28;21490;-53
2022/01/07 11:06:17;;;;;;;;;;;;;;;27.98;43.04;101884.22;5032159;28;19921;-51
2022/01/07 11:08:47;;;;;;;;;;;;;;;28.18;43.09;101892.97;5032131;28;20403;-51
2022/01/07 11:11:14;;;;;;;;;;;;;;;28.40;42.81;101900.97;5032101;28;20028;-52
2022/01/07 11:13:42;;;;;;;;;;;;;;;28.51;41.57;101899.22;5031978;28;20016;-53
2022/01/07 11:16:08;;;;;;;;;;;;;;;28.94;41.35;101897.38;5031906;28;20075;-54
2022/01/07 11:18:39;;;;;;;;;;;;;;;29.12;40.25;101891.25;5051408;28;19921;-53
2022/01/07 11:21:07;;;;;;;;;;;;;;;29.20;39.77;101890.22;5051921;28;19921;-53
2022/01/07 11:23:37;;;;;;;;;;;;;;;29.38;38.73;101899.25;5040130;28;19975;-53
2022/01/07 11:26:05;;;;;;;;;;;;;;;29.63;38.88;101882.53;5035863;28;20020;-54
2022/01/07 11:28:32;;;;;;;;;;;;;;;30.03;38.75;101878.41;5035606;28;19927;-54
2022/01/07 11:31:02;;;;;;;;;;;;;;;30.21;37.94;101868.06;5035654;28;20363;-53
2022/01/07 11:33:30;;;;;;;;;;;;;;;30.35;38.29;101867.47;5048813;28;19931;-56
2022/01/07 11:35:57;;;;;;;;;;;;;;;30.52;37.45;101866.94;5035665;28;20020;-54
2022/01/07 11:38:31;;;;;;;;;;;;;;;30.62;36.73;101859.69;5035401;28;19960;-55
2022/01/07 11:40:58;;;;;;;;;;;;;;;30.56;36.34;101867.84;5035590;28;19920;-53
2022/01/07 11:43:31;;;;;;;;;;;;;;;30.41;35.61;101866.78;5038772;28;20258;-55
2022/01/07 11:46:01;;;;;;;;;;;;;;;30.41;35.55;101866.78;5055254;28;19927;-53
2022/01/07 11:48:30;;;;;;;;;;;;;;;30.92;36.08;101871.34;5046475;28;19928;-55
2022/01/07 11:50:59;;;;;;;;;;;;;;;31.28;35.16;101869.81;5036203;28;19970;-54
2022/01/07 11:53:46;;;;;;;;;;;;;;;31.47;34.83;101865.13;5035390;28;20019;-54
2022/01/07 11:56:14;;;;;;;;;;;;;;;31.78;35.15;101864.66;5041443;28;20016;-55
2022/01/07 11:58:42;;;;;;;;;;;;;;;32.01;34.51;101867.44;5035386;28;20004;-54
2022/01/07 12:01:22;;;;;;;;;;;;;;;31.75;33.05;101859.66;5048954;28;20478;-53
2022/01/07 12:03:50;;;;;;;;;;;;;;;31.72;33.23;101850.97;5034651;28;20028;-53
2022/01/07 12:06:29;;;;;;;;;;;;;;;31.83;32.87;101855.66;5034861;28;20020;-53
2022/01/07 12:08:56;;;;;;;;;;;;;;;31.82;32.23;101853.97;5035872;28;19968;-52
2022/01/07 12:11:24;;;;;;;;;;;;;;;31.71;31.70;101841.47;5034823;28;19972;-53
2022/01/07 12:13:50;;;;;;;;;;;;;;;31.64;31.23;101855.84;5035002;28;19920;-52
2022/01/07 12:16:18;;;;;;;;;;;;;;;31.85;31.46;101850.28;5035062;28;19929;-54
2022/01/07 12:18:45;;;;;;;;;;;;;;;31.95;30.40;101848.78;5034590;28;19951;-53
2022/01/07 12:21:12;;;;;;;;;;;;;;;31.89;30.76;101852.44;5038558;28;19968;-52
2022/01/07 12:23:42;;;;;;;;;;;;;;;31.83;31.30;101846.13;5054561;28;20019;-53
2022/01/07 12:26:08;;;;;;;;;;;;;;;31.78;31.44;101846.50;5053659;28;20004;-53
2022/01/07 12:28:45;;;;;;;;;;;;;;;32.28;31.98;101850.75;5036958;28;19921;-52
2022/01/07 12:31:12;;;;;;;;;;;;;;;32.70;30.60;101839.97;5034799;28;20003;-52
2022/01/07 12:33:48;;;;;;;;;;;;;;;32.80;31.04;101842.94;5054120;28;19951;-51
2022/01/07 12:36:34;;;;;;;;;;;;;;;32.92;30.63;101840.94;5035411;28;20012;-53
2022/01/07 12:39:03;;;;;;;;;;;;;;;32.91;30.26;101839.28;5034158;28;20026;-53
2022/01/07 12:41:30;;;;;;;;;;;;;;;33.03;29.96;101851.38;5035022;28;19927;-53
2022/01/07 12:44:08;;;;;;;;;;;;;;;33.18;30.21;101843.59;5034010;28;19925;-53
2022/01/07 12:46:37;;;;;;;;;;;;;;;33.10;29.72;101844.81;5034077;28;20007;-51
2022/01/07 12:49:05;;;;;;;;;;;;;;;33.02;29.52;101840.19;5034250;28;20273;-52
2022/01/07 12:51:31;;;;;;;;;;;;;;;32.99;29.11;101843.91;5033904;28;20415;-53
2022/01/07 12:54:01;;;;;;;;;;;;;;;32.99;28.59;101841.00;5034120;28;20019;-53
2022/01/07 12:56:31;;;;;;;;;;;;;;;32.85;28.32;101843.78;5034297;28;19967;-52